Time;durP1;ratioP1;P1;durP2;ratioP2;P2;SDS_P1;SDS_P2;PMS_P1;PMS_P2;Temp;Humidity;BMP_temperature;BMP_pressure;BME280_temperature;BME280_humidity;BME280_pressure;Samples;Min_cycle;Max_cycle;Signal;HPM_P1;HPM_P2
2021/09/28 00:00:53;;;;;;;17.60;13.05;;;;;;;;;;4993766;28;20096;-68
2021/09/28 00:03:18;;;;;;;17.30;12.98;;;;;;;;;;4995198;28;20022;-67
2021/09/28 00:05:45;;;;;;;19.23;13.40;;;;;;;;;;4998869;28;20025;-67
2021/09/28 00:08:10;;;;;;;19.67;13.32;;;;;;;;;;4997663;28;20265;-66
2021/09/28 00:10:36;;;;;;;17.48;13.48;;;;;;;;;;4992077;28;20488;-66
2021/09/28 00:13:01;;;;;;;16.95;13.10;;;;;;;;;;5006517;28;20018;-67
2021/09/28 00:15:26;;;;;;;17.50;12.80;;;;;;;;;;5000356;28;20458;-67
2021/09/28 00:17:52;;;;;;;18.00;13.40;;;;;;;;;;4998436;28;20763;-67
2021/09/28 00:20:17;;;;;;;17.47;11.83;;;;;;;;;;4996571;28;20057;-66
2021/09/28 00:22:42;;;;;;;19.30;13.10;;;;;;;;;;4990471;28;20559;-66
2021/09/28 00:25:08;;;;;;;16.17;12.88;;;;;;;;;;4999033;28;20280;-66
2021/09/28 00:27:33;;;;;;;16.95;12.70;;;;;;;;;;5003345;28;20026;-67
2021/09/28 00:29:59;;;;;;;16.80;12.05;;;;;;;;;;5000598;28;20030;-67
2021/09/28 00:32:24;;;;;;;17.88;12.68;;;;;;;;;;4995604;28;20101;-66
2021/09/28 00:34:50;;;;;;;16.58;12.38;;;;;;;;;;4992710;28;20387;-67
2021/09/28 00:37:16;;;;;;;16.93;12.67;;;;;;;;;;4996104;28;20371;-67
2021/09/28 00:39:41;;;;;;;15.82;12.40;;;;;;;;;;5001987;28;20307;-67
2021/09/28 00:42:06;;;;;;;17.33;12.50;;;;;;;;;;4999110;28;20029;-66
2021/09/28 00:44:33;;;;;;;20.52;14.02;;;;;;;;;;4992859;28;20629;-66
2021/09/28 00:46:58;;;;;;;19.67;13.73;;;;;;;;;;4995768;28;20113;-66
2021/09/28 00:49:23;;;;;;;18.10;13.07;;;;;;;;;;5002332;28;20179;-67
2021/09/28 00:51:48;;;;;;;17.58;13.23;;;;;;;;;;4993578;28;20052;-66
2021/09/28 00:54:14;;;;;;;17.73;12.18;;;;;;;;;;4996892;28;20133;-66
2021/09/28 00:56:39;;;;;;;17.25;13.40;;;;;;;;;;5007690;28;20025;-66
2021/09/28 00:59:05;;;;;;;19.02;13.75;;;;;;;;;;4999345;28;20045;-67
2021/09/28 01:01:31;;;;;;;22.30;14.52;;;;;;;;;;5002208;28;20179;-67
2021/09/28 01:03:56;;;;;;;23.10;14.68;;;;;;;;;;4994411;28;20104;-67
2021/09/28 01:06:21;;;;;;;17.60;12.85;;;;;;;;;;5001392;28;20033;-67
2021/09/28 01:08:47;;;;;;;17.88;13.02;;;;;;;;;;5005035;28;20533;-68
2021/09/28 01:11:12;;;;;;;18.67;12.93;;;;;;;;;;5002178;28;20038;-67
2021/09/28 01:13:37;;;;;;;16.13;12.50;;;;;;;;;;5003014;28;20868;-67
2021/09/28 01:16:02;;;;;;;20.50;12.70;;;;;;;;;;5000547;28;20459;-66
2021/09/28 01:18:28;;;;;;;17.70;12.50;;;;;;;;;;5006521;28;20279;-66
2021/09/28 01:20:53;;;;;;;17.50;13.02;;;;;;;;;;5001259;28;20395;-67
2021/09/28 01:23:19;;;;;;;17.70;12.90;;;;;;;;;;4996961;28;20057;-68
2021/09/28 01:25:44;;;;;;;16.20;12.20;;;;;;;;;;5008393;28;20025;-66
2021/09/28 01:28:09;;;;;;;18.15;13.38;;;;;;;;;;4996590;28;20328;-67
2021/09/28 01:30:34;;;;;;;18.13;12.50;;;;;;;;;;4997853;28;20038;-67
2021/09/28 01:32:59;;;;;;;16.23;12.05;;;;;;;;;;5000333;28;20032;-67
2021/09/28 01:35:25;;;;;;;14.93;11.68;;;;;;;;;;4999832;28;20026;-68
2021/09/28 01:37:50;;;;;;;17.45;12.07;;;;;;;;;;4998960;28;20053;-66
2021/09/28 01:40:15;;;;;;;19.30;12.45;;;;;;;;;;5003438;28;20042;-67
2021/09/28 01:42:40;;;;;;;17.23;12.60;;;;;;;;;;4997631;28;20106;-67
2021/09/28 01:45:05;;;;;;;16.80;12.00;;;;;;;;;;4999366;28;20409;-67
2021/09/28 01:47:31;;;;;;;17.65;12.43;;;;;;;;;;4997823;28;20029;-67
2021/09/28 01:49:56;;;;;;;18.05;12.50;;;;;;;;;;4999476;28;20034;-67
2021/09/28 01:52:21;;;;;;;17.58;12.10;;;;;;;;;;4997393;28;20390;-67
2021/09/28 01:54:46;;;;;;;16.67;12.07;;;;;;;;;;5002213;28;20285;-66
2021/09/28 01:57:11;;;;;;;15.07;11.70;;;;;;;;;;5002458;28;20022;-67
2021/09/28 01:59:36;;;;;;;19.23;12.30;;;;;;;;;;5000836;28;20488;-67
2021/09/28 02:02:02;;;;;;;15.05;11.18;;;;;;;;;;5002562;28;20047;-66
2021/09/28 02:04:27;;;;;;;13.43;11.60;;;;;;;;;;4996907;28;20181;-67
2021/09/28 02:06:52;;;;;;;17.13;11.77;;;;;;;;;;5000429;28;20053;-67
2021/09/28 02:09:17;;;;;;;16.05;11.43;;;;;;;;;;5001831;28;20026;-66
2021/09/28 02:11:43;;;;;;;14.70;11.00;;;;;;;;;;5002297;28;20033;-67
2021/09/28 02:14:08;;;;;;;14.93;11.45;;;;;;;;;;5006623;28;20029;-67
2021/09/28 02:16:34;;;;;;;15.93;11.45;;;;;;;;;;4998610;28;20363;-67
2021/09/28 02:18:59;;;;;;;13.85;11.80;;;;;;;;;;5006071;28;20033;-67
2021/09/28 02:21:24;;;;;;;13.80;11.10;;;;;;;;;;5001876;28;20551;-67
2021/09/28 02:23:50;;;;;;;15.38;10.88;;;;;;;;;;5000655;28;20268;-67
2021/09/28 02:26:15;;;;;;;15.70;11.43;;;;;;;;;;5005505;28;20041;-67
2021/09/28 02:28:40;;;;;;;15.07;11.75;;;;;;;;;;5004780;28;20042;-67
2021/09/28 02:31:06;;;;;;;15.70;11.20;;;;;;;;;;5003058;28;20046;-67
2021/09/28 02:33:31;;;;;;;15.52;11.27;;;;;;;;;;4993235;28;20350;-66
2021/09/28 02:35:56;;;;;;;14.52;10.73;;;;;;;;;;5001580;28;20046;-68
2021/09/28 02:38:21;;;;;;;14.27;10.65;;;;;;;;;;5000981;28;20026;-66
2021/09/28 02:40:47;;;;;;;15.82;11.25;;;;;;;;;;4995833;28;20026;-67
2021/09/28 02:43:13;;;;;;;13.90;10.73;;;;;;;;;;4991374;28;20085;-66
2021/09/28 02:45:40;;;;;;;14.68;10.73;;;;;;;;;;5002259;28;20045;-66
2021/09/28 02:48:05;;;;;;;14.95;11.00;;;;;;;;;;4999628;28;20041;-67
2021/09/28 02:50:33;;;;;;;15.40;10.90;;;;;;;;;;4994632;28;20034;-67
2021/09/28 02:52:58;;;;;;;15.02;9.93;;;;;;;;;;4997267;28;20536;-66
2021/09/28 02:55:23;;;;;;;13.70;9.77;;;;;;;;;;5001113;28;20016;-66
2021/09/28 02:57:49;;;;;;;14.15;10.65;;;;;;;;;;5000411;28;20022;-66
2021/09/28 03:00:14;;;;;;;14.20;9.97;;;;;;;;;;4995054;28;20042;-67
2021/09/28 03:02:39;;;;;;;16.73;11.07;;;;;;;;;;5006109;28;20317;-66
2021/09/28 03:05:05;;;;;;;12.18;9.50;;;;;;;;;;5005390;28;20418;-66
2021/09/28 03:07:30;;;;;;;16.70;10.93;;;;;;;;;;5005317;28;20414;-67
2021/09/28 03:09:55;;;;;;;12.93;9.53;;;;;;;;;;5002187;28;20038;-67
2021/09/28 03:12:20;;;;;;;14.13;10.48;;;;;;;;;;4994201;28;20273;-68
2021/09/28 03:14:45;;;;;;;13.90;9.68;;;;;;;;;;5002505;28;20461;-66
2021/09/28 03:17:11;;;;;;;13.15;9.80;;;;;;;;;;4997110;28;20489;-66
2021/09/28 03:19:37;;;;;;;13.23;10.03;;;;;;;;;;5002885;28;20034;-67
2021/09/28 03:22:02;;;;;;;13.68;10.18;;;;;;;;;;4994477;28;20727;-68
2021/09/28 03:24:27;;;;;;;15.63;9.98;;;;;;;;;;4997083;28;20358;-65
2021/09/28 03:26:52;;;;;;;13.65;9.52;;;;;;;;;;4997981;28;20079;-66
2021/09/28 03:29:18;;;;;;;14.30;10.75;;;;;;;;;;5001537;28;20022;-66
2021/09/28 03:31:43;;;;;;;13.40;9.77;;;;;;;;;;5004991;28;20480;-67
2021/09/28 03:34:08;;;;;;;14.38;9.57;;;;;;;;;;5006077;28;20497;-66
2021/09/28 03:36:33;;;;;;;11.77;9.07;;;;;;;;;;4998831;28;20489;-65
2021/09/28 03:38:58;;;;;;;12.87;9.93;;;;;;;;;;4996779;28;20446;-66
2021/09/28 03:41:24;;;;;;;11.70;8.95;;;;;;;;;;5000862;28;20284;-67
2021/09/28 03:43:49;;;;;;;14.63;9.68;;;;;;;;;;4993560;28;20048;-66
2021/09/28 03:46:14;;;;;;;14.50;9.85;;;;;;;;;;4997768;28;20019;-67
2021/09/28 03:48:39;;;;;;;14.27;9.07;;;;;;;;;;4996761;28;20045;-66
2021/09/28 03:51:05;;;;;;;11.88;9.02;;;;;;;;;;5000111;28;20026;-67
2021/09/28 03:53:30;;;;;;;15.70;10.15;;;;;;;;;;4995031;28;20023;-66
2021/09/28 03:55:55;;;;;;;13.98;10.07;;;;;;;;;;5001247;28;20029;-66
2021/09/28 03:58:20;;;;;;;14.30;10.13;;;;;;;;;;4995971;28;20502;-66
2021/09/28 04:00:45;;;;;;;13.70;10.53;;;;;;;;;;5004445;28;20307;-66
2021/09/28 04:03:10;;;;;;;14.90;10.93;;;;;;;;;;5014581;28;20269;-66
2021/09/28 04:05:36;;;;;;;17.17;11.48;;;;;;;;;;5000442;28;20441;-66
2021/09/28 04:08:02;;;;;;;15.95;11.30;;;;;;;;;;5007200;28;20022;-69
2021/09/28 04:10:27;;;;;;;17.50;12.23;;;;;;;;;;4993332;28;20418;-67
2021/09/28 04:12:52;;;;;;;16.13;11.48;;;;;;;;;;5002892;28;20064;-66
2021/09/28 04:15:21;;;;;;;16.58;11.98;;;;;;;;;;5001886;28;20026;-67
2021/09/28 04:17:46;;;;;;;19.33;12.48;;;;;;;;;;5004899;28;20111;-67
2021/09/28 04:20:12;;;;;;;20.88;14.20;;;;;;;;;;4997827;28;20501;-67
2021/09/28 04:22:37;;;;;;;19.20;13.52;;;;;;;;;;4999695;28;20454;-68
2021/09/28 04:25:03;;;;;;;20.02;14.20;;;;;;;;;;4992708;28;20049;-67
2021/09/28 04:27:28;;;;;;;19.65;14.15;;;;;;;;;;5000487;28;20132;-67
2021/09/28 04:29:54;;;;;;;21.35;14.38;;;;;;;;;;5000428;28;20054;-68
2021/09/28 04:32:19;;;;;;;22.40;14.20;;;;;;;;;;4999184;28;20049;-67
2021/09/28 04:34:44;;;;;;;20.25;14.20;;;;;;;;;;5001848;28;20343;-66
2021/09/28 04:37:11;;;;;;;21.53;14.47;;;;;;;;;;4999634;28;20026;-67
2021/09/28 04:39:37;;;;;;;22.75;15.48;;;;;;;;;;4998527;28;20303;-67
2021/09/28 04:42:02;;;;;;;21.70;14.65;;;;;;;;;;5005032;28;20025;-67
2021/09/28 04:44:28;;;;;;;21.95;13.88;;;;;;;;;;4994305;28;20042;-66
2021/09/28 04:46:53;;;;;;;18.80;14.25;;;;;;;;;;4996706;28;20053;-71
2021/09/28 04:49:18;;;;;;;19.05;14.25;;;;;;;;;;5000083;28;20488;-69
2021/09/28 04:51:43;;;;;;;20.00;13.70;;;;;;;;;;4991988;28;20084;-69
2021/09/28 04:54:08;;;;;;;18.65;14.18;;;;;;;;;;5002264;28;20360;-69
2021/09/28 04:56:35;;;;;;;17.30;13.32;;;;;;;;;;4994672;28;20277;-70
2021/09/28 04:59:01;;;;;;;17.08;13.63;;;;;;;;;;5000749;28;20434;-69
2021/09/28 05:01:26;;;;;;;17.17;13.23;;;;;;;;;;5000946;28;20030;-69
2021/09/28 05:03:51;;;;;;;16.83;13.32;;;;;;;;;;5002156;28;20375;-70
2021/09/28 05:06:16;;;;;;;16.80;12.37;;;;;;;;;;5006375;28;20296;-69
2021/09/28 05:08:41;;;;;;;18.83;13.03;;;;;;;;;;4999924;28;21060;-69
2021/09/28 05:11:11;;;;;;;19.80;12.55;;;;;;;;;;5002421;28;20285;-70
2021/09/28 05:13:36;;;;;;;17.10;12.27;;;;;;;;;;4998349;28;20037;-68
2021/09/28 05:16:01;;;;;;;17.30;11.73;;;;;;;;;;5006107;28;20030;-71
2021/09/28 05:18:26;;;;;;;18.42;12.48;;;;;;;;;;4994252;28;20101;-69
2021/09/28 05:20:52;;;;;;;16.25;11.70;;;;;;;;;;5003349;28;20046;-69
2021/09/28 05:23:17;;;;;;;16.58;12.18;;;;;;;;;;4996396;28;20030;-69
2021/09/28 05:25:42;;;;;;;17.73;12.23;;;;;;;;;;4999950;28;20133;-70
2021/09/28 05:28:07;;;;;;;15.20;11.45;;;;;;;;;;4993787;28;20276;-70
2021/09/28 05:30:32;;;;;;;15.68;12.07;;;;;;;;;;4997590;28;20041;-67
2021/09/28 05:32:58;;;;;;;15.98;11.80;;;;;;;;;;5002442;28;20132;-69
2021/09/28 05:35:23;;;;;;;14.70;11.55;;;;;;;;;;5007664;28;20026;-59
2021/09/28 05:37:48;;;;;;;13.15;10.60;;;;;;;;;;5005735;28;20297;-61
2021/09/28 05:40:13;;;;;;;15.27;10.15;;;;;;;;;;5005130;28;20406;-60
2021/09/28 05:42:38;;;;;;;12.60;9.52;;;;;;;;;;5006342;28;20022;-60
2021/09/28 05:45:04;;;;;;;13.23;9.88;;;;;;;;;;5007034;28;20178;-59
2021/09/28 05:47:30;;;;;;;11.60;8.77;;;;;;;;;;5010374;28;20035;-60
2021/09/28 05:49:55;;;;;;;11.53;9.10;;;;;;;;;;4997587;28;20030;-60
2021/09/28 05:52:20;;;;;;;11.57;8.30;;;;;;;;;;5003545;28;20708;-59
2021/09/28 05:54:48;;;;;;;11.70;8.25;;;;;;;;;;4997109;28;20287;-61
2021/09/28 05:57:17;;;;;;;11.80;8.60;;;;;;;;;;4999627;28;20389;-59
2021/09/28 05:59:43;;;;;;;12.00;9.13;;;;;;;;;;4992257;28;20046;-60
2021/09/28 06:02:08;;;;;;;10.82;8.68;;;;;;;;;;4991758;28;20022;-60
2021/09/28 06:04:33;;;;;;;12.77;8.18;;;;;;;;;;4992930;28;20494;-59
2021/09/28 06:07:00;;;;;;;10.15;7.30;;;;;;;;;;5013960;28;20465;-60
2021/09/28 06:09:25;;;;;;;10.35;7.38;;;;;;;;;;4991726;28;20084;-60
2021/09/28 06:11:51;;;;;;;9.68;6.75;;;;;;;;;;4995471;28;20027;-59
2021/09/28 06:14:17;;;;;;;9.95;6.35;;;;;;;;;;5007820;28;20033;-60
2021/09/28 06:16:42;;;;;;;9.90;6.95;;;;;;;;;;4994075;28;20030;-58
2021/09/28 06:19:07;;;;;;;9.15;6.15;;;;;;;;;;4997723;28;20026;-61
2021/09/28 06:21:32;;;;;;;8.97;6.00;;;;;;;;;;4996840;28;20508;-59
2021/09/28 06:23:57;;;;;;;9.97;5.77;;;;;;;;;;5002404;28;20269;-59
2021/09/28 06:26:22;;;;;;;5.70;4.50;;;;;;;;;;5001613;28;20281;-60
2021/09/28 06:28:48;;;;;;;7.03;4.50;;;;;;;;;;5004123;28;20295;-59
2021/09/28 06:31:13;;;;;;;6.27;4.00;;;;;;;;;;5001813;28;20525;-59
2021/09/28 06:33:38;;;;;;;5.87;2.30;;;;;;;;;;4991701;28;20257;-58
2021/09/28 06:36:03;;;;;;;4.13;2.70;;;;;;;;;;4999735;28;20284;-59
2021/09/28 06:38:28;;;;;;;3.50;2.33;;;;;;;;;;5000414;28;20030;-60
2021/09/28 06:40:54;;;;;;;3.33;2.00;;;;;;;;;;5006334;28;20068;-59
2021/09/28 06:43:19;;;;;;;3.35;1.50;;;;;;;;;;5007379;28;20299;-60
2021/09/28 06:45:44;;;;;;;3.33;1.48;;;;;;;;;;5000130;28;20030;-56
2021/09/28 06:48:09;;;;;;;1.27;1.02;;;;;;;;;;4995997;28;20102;-59
2021/09/28 06:50:35;;;;;;;4.28;1.40;;;;;;;;;;4999956;28;20033;-59
2021/09/28 06:53:00;;;;;;;2.58;1.35;;;;;;;;;;5004059;28;20392;-60
2021/09/28 06:55:25;;;;;;;2.67;1.40;;;;;;;;;;5003361;28;20084;-60
2021/09/28 06:57:50;;;;;;;1.45;1.00;;;;;;;;;;5003603;28;20588;-59
2021/09/28 07:00:15;;;;;;;2.63;0.90;;;;;;;;;;4996013;28;20650;-58
2021/09/28 07:02:41;;;;;;;3.10;0.80;;;;;;;;;;4990352;28;20258;-60
2021/09/28 07:05:11;;;;;;;1.42;0.65;;;;;;;;;;4997040;28;20130;-59
2021/09/28 07:07:37;;;;;;;1.88;0.60;;;;;;;;;;4995150;28;20413;-59
2021/09/28 07:10:02;;;;;;;0.95;0.40;;;;;;;;;;5000166;28;20068;-59
2021/09/28 07:12:27;;;;;;;1.08;0.50;;;;;;;;;;4995754;28;20388;-58
2021/09/28 07:14:53;;;;;;;0.83;0.40;;;;;;;;;;4995277;28;20042;-60
2021/09/28 07:17:18;;;;;;;1.25;0.50;;;;;;;;;;4994849;28;20346;-59
2021/09/28 07:19:43;;;;;;;1.38;0.65;;;;;;;;;;5004706;28;20038;-58
2021/09/28 07:22:08;;;;;;;1.30;0.80;;;;;;;;;;4992274;28;20014;-59
2021/09/28 07:24:33;;;;;;;2.70;0.70;;;;;;;;;;4988792;28;20042;-58
2021/09/28 07:26:59;;;;;;;1.55;1.00;;;;;;;;;;4998732;28;20026;-59
2021/09/28 07:29:24;;;;;;;1.27;0.70;;;;;;;;;;5001898;28;20022;-59
2021/09/28 07:31:49;;;;;;;2.50;1.08;;;;;;;;;;5003176;28;20470;-58
2021/09/28 07:34:14;;;;;;;1.73;1.17;;;;;;;;;;5000844;28;20394;-59
2021/09/28 07:36:39;;;;;;;2.20;1.50;;;;;;;;;;5000267;28;20281;-58
2021/09/28 07:39:04;;;;;;;1.83;1.23;;;;;;;;;;4989947;28;20262;-59
2021/09/28 07:41:30;;;;;;;2.00;1.00;;;;;;;;;;4998512;28;20071;-59
2021/09/28 07:43:55;;;;;;;1.60;1.00;;;;;;;;;;4989865;28;20014;-58
2021/09/28 07:46:20;;;;;;;2.08;1.00;;;;;;;;;;4994238;28;20082;-58
2021/09/28 07:48:45;;;;;;;1.73;0.90;;;;;;;;;;4998239;28;20018;-58
2021/09/28 07:51:11;;;;;;;1.75;0.80;;;;;;;;;;4993995;28;20026;-60
2021/09/28 07:53:37;;;;;;;2.33;1.10;;;;;;;;;;4994773;28;20103;-58
2021/09/28 07:56:03;;;;;;;2.75;1.10;;;;;;;;;;4990037;28;20108;-59
2021/09/28 07:58:28;;;;;;;1.95;1.25;;;;;;;;;;4999268;28;20046;-58
2021/09/28 08:00:54;;;;;;;2.95;1.08;;;;;;;;;;4996016;28;20041;-59
2021/09/28 08:03:20;;;;;;;2.10;1.17;;;;;;;;;;5000533;28;20282;-58
2021/09/28 08:05:47;;;;;;;3.55;1.00;;;;;;;;;;4992073;28;20026;-58
2021/09/28 08:08:12;;;;;;;1.75;0.95;;;;;;;;;;4999367;28;20117;-58
2021/09/28 08:10:37;;;;;;;1.30;1.00;;;;;;;;;;5002702;28;20029;-58
2021/09/28 08:13:05;;;;;;;1.40;0.70;;;;;;;;;;5002709;28;20533;-59
2021/09/28 08:15:31;;;;;;;1.33;0.80;;;;;;;;;;4996171;28;20497;-59
2021/09/28 08:17:56;;;;;;;3.80;1.00;;;;;;;;;;4995448;28;20030;-58
2021/09/28 08:20:22;;;;;;;2.10;0.80;;;;;;;;;;4993440;28;20068;-59
2021/09/28 08:22:47;;;;;;;0.98;0.60;;;;;;;;;;5000401;28;20277;-59
2021/09/28 08:25:17;;;;;;;0.75;0.70;;;;;;;;;;4997304;28;20033;-59
2021/09/28 08:30:26;;;;;;;1.65;0.98;;;;;;;;;;5002402;28;20389;-59
2021/09/28 08:32:51;;;;;;;1.65;0.85;;;;;;;;;;4995649;28;20018;-59
2021/09/28 08:35:16;;;;;;;1.38;0.90;;;;;;;;;;5005555;28;20037;-59
2021/09/28 08:37:42;;;;;;;1.40;0.93;;;;;;;;;;5007838;28;20014;-58
2021/09/28 08:40:07;;;;;;;1.67;1.00;;;;;;;;;;4997206;28;20657;-58
2021/09/28 08:42:32;;;;;;;1.65;1.00;;;;;;;;;;5003960;28;20026;-58
2021/09/28 08:44:58;;;;;;;1.48;1.13;;;;;;;;;;4995332;28;20406;-59
2021/09/28 08:47:42;;;;;;;2.22;1.00;;;;;;;;;;5002070;28;20026;-60
2021/09/28 08:50:10;;;;;;;2.25;1.15;;;;;;;;;;5002245;28;20025;-58
2021/09/28 08:52:43;;;;;;;2.25;1.20;;;;;;;;;;5004872;28;20030;-59
2021/09/28 08:55:08;;;;;;;2.50;1.20;;;;;;;;;;5004400;28;20108;-59
2021/09/28 08:57:33;;;;;;;2.90;1.27;;;;;;;;;;4998202;28;20444;-59
2021/09/28 08:59:59;;;;;;;1.33;1.17;;;;;;;;;;4993828;28;20776;-59
2021/09/28 09:02:41;;;;;;;2.38;1.45;;;;;;;;;;4991832;28;20578;-59
2021/09/28 09:05:11;;;;;;;2.70;1.35;;;;;;;;;;5004528;28;20017;-59
2021/09/28 09:07:36;;;;;;;2.10;1.50;;;;;;;;;;5000881;28;20079;-59
2021/09/28 09:10:01;;;;;;;4.03;1.73;;;;;;;;;;5001084;28;20121;-59
2021/09/28 09:12:30;;;;;;;2.47;1.40;;;;;;;;;;5003653;28;20288;-58
2021/09/28 09:15:14;;;;;;;2.45;1.30;;;;;;;;;;5001476;28;20104;-62
2021/09/28 09:17:39;;;;;;;3.28;1.38;;;;;;;;;;4998874;28;20118;-59
2021/09/28 09:20:20;;;;;;;1.93;1.37;;;;;;;;;;4996289;28;20121;-59
2021/09/28 09:22:45;;;;;;;2.58;1.48;;;;;;;;;;5003900;28;20779;-58
2021/09/28 09:25:17;;;;;;;2.63;1.27;;;;;;;;;;4993563;28;20022;-61
2021/09/28 09:27:42;;;;;;;2.33;1.50;;;;;;;;;;5005016;28;20319;-59
2021/09/28 09:30:08;;;;;;;1.98;0.85;;;;;;;;;;5002933;28;20030;-60
2021/09/28 09:32:50;;;;;;;1.95;0.90;;;;;;;;;;5001889;28;20018;-60
2021/09/28 09:35:35;;;;;;;1.88;1.20;;;;;;;;;;4997889;28;20120;-59
2021/09/28 09:38:11;;;;;;;1.60;1.00;;;;;;;;;;4999790;28;20124;-59
2021/09/28 09:40:37;;;;;;;2.00;1.10;;;;;;;;;;4993819;28;20505;-59
2021/09/28 09:43:03;;;;;;;3.28;1.40;;;;;;;;;;4995300;28;20038;-59
2021/09/28 09:45:28;;;;;;;2.05;1.30;;;;;;;;;;4992170;28;20022;-59
2021/09/28 09:47:54;;;;;;;2.05;1.50;;;;;;;;;;4993301;28;20093;-60
2021/09/28 09:50:20;;;;;;;2.22;1.58;;;;;;;;;;4998628;28;20022;-61
2021/09/28 09:52:57;;;;;;;2.80;1.70;;;;;;;;;;4999028;28;20096;-60
2021/09/28 09:55:24;;;;;;;1.92;1.33;;;;;;;;;;4996135;28;20019;-60
2021/09/28 09:57:49;;;;;;;3.63;1.70;;;;;;;;;;5003945;28;20550;-60
2021/09/28 10:00:14;;;;;;;2.83;1.90;;;;;;;;;;4999256;28;20036;-60
2021/09/28 10:02:39;;;;;;;3.60;2.00;;;;;;;;;;4992011;28;20032;-63
2021/09/28 10:05:05;;;;;;;3.78;2.50;;;;;;;;;;4995426;28;20026;-61
2021/09/28 10:07:30;;;;;;;4.55;2.40;;;;;;;;;;4998813;28;20028;-61
2021/09/28 10:09:55;;;;;;;5.10;1.90;;;;;;;;;;5004100;28;20084;-60
2021/09/28 10:12:21;;;;;;;3.33;2.10;;;;;;;;;;5004091;28;20620;-59
2021/09/28 10:14:46;;;;;;;2.88;1.90;;;;;;;;;;4991205;28;20026;-59
2021/09/28 10:17:17;;;;;;;3.15;1.95;;;;;;;;;;5002928;28;20026;-59
2021/09/28 10:19:43;;;;;;;3.55;2.20;;;;;;;;;;4997042;28;20513;-60
2021/09/28 10:22:28;;;;;;;2.60;1.65;;;;;;;;;;4999571;28;20077;-61
2021/09/28 10:25:14;;;;;;;3.20;2.00;;;;;;;;;;4998887;28;20573;-60
2021/09/28 10:27:39;;;;;;;2.22;1.60;;;;;;;;;;4991125;28;20080;-60
2021/09/28 10:30:04;;;;;;;3.20;1.90;;;;;;;;;;4997425;28;20417;-59
2021/09/28 10:32:36;;;;;;;2.95;1.90;;;;;;;;;;4994755;28;20270;-59
2021/09/28 10:35:02;;;;;;;3.08;2.13;;;;;;;;;;4995313;28;20022;-60
2021/09/28 10:37:42;;;;;;;4.72;1.83;;;;;;;;;;4997362;28;20025;-60
2021/09/28 10:40:08;;;;;;;4.07;1.90;;;;;;;;;;4992477;28;20041;-60
2021/09/28 10:42:49;;;;;;;3.38;1.80;;;;;;;;;;5003138;28;20030;-60
2021/09/28 10:45:16;;;;;;;2.72;2.08;;;;;;;;;;5003034;28;20018;-60
2021/09/28 10:47:43;;;;;;;3.13;1.85;;;;;;;;;;5003294;28;20426;-60
2021/09/28 10:50:18;;;;;;;5.25;2.30;;;;;;;;;;4998013;28;20442;-61
2021/09/28 10:52:44;;;;;;;3.80;2.10;;;;;;;;;;4991069;28;20351;-60
2021/09/28 10:55:09;;;;;;;2.97;2.30;;;;;;;;;;5002482;28;20037;-58
2021/09/28 10:57:53;;;;;;;3.30;2.00;;;;;;;;;;4998166;28;20022;-60
2021/09/28 11:00:18;;;;;;;4.03;2.20;;;;;;;;;;5006336;28;20057;-59
2021/09/28 11:02:52;;;;;;;3.23;2.00;;;;;;;;;;4998214;28;20010;-59
2021/09/28 11:05:35;;;;;;;3.97;2.10;;;;;;;;;;4998756;28;20743;-59
2021/09/28 11:08:00;;;;;;;3.05;1.80;;;;;;;;;;4995206;28;20516;-60
2021/09/28 11:10:26;;;;;;;2.70;1.95;;;;;;;;;;4998192;28;20026;-60
2021/09/28 11:12:51;;;;;;;7.10;3.40;;;;;;;;;;4995979;28;20030;-59
2021/09/28 11:15:18;;;;;;;3.92;2.55;;;;;;;;;;5004249;28;20036;-59
2021/09/28 11:17:43;;;;;;;7.32;5.10;;;;;;;;;;4992791;28;20031;-60
2021/09/28 11:20:24;;;;;;;7.18;4.40;;;;;;;;;;5000781;28;20032;-61
2021/09/28 11:22:54;;;;;;;6.53;5.75;;;;;;;;;;4998736;28;20025;-60
2021/09/28 11:25:19;;;;;;;7.88;5.57;;;;;;;;;;4995989;28;20014;-60
2021/09/28 11:27:58;;;;;;;9.27;5.00;;;;;;;;;;4990503;28;20446;-60
2021/09/28 11:30:23;;;;;;;6.25;4.70;;;;;;;;;;5002336;28;20084;-60
2021/09/28 11:32:56;;;;;;;9.30;4.60;;;;;;;;;;5001211;28;20022;-61
2021/09/28 11:35:21;;;;;;;8.18;4.90;;;;;;;;;;4999260;28;20038;-60
2021/09/28 11:37:52;;;;;;;6.70;4.20;;;;;;;;;;4999734;28;20460;-60
2021/09/28 11:40:17;;;;;;;6.85;4.45;;;;;;;;;;5000585;28;20299;-59
2021/09/28 11:42:43;;;;;;;6.25;4.10;;;;;;;;;;4993798;28;20018;-59
2021/09/28 11:45:08;;;;;;;4.60;3.50;;;;;;;;;;5001995;28;20120;-59
2021/09/28 11:47:40;;;;;;;7.50;3.58;;;;;;;;;;4998082;28;20054;-59
2021/09/28 11:50:05;;;;;;;4.93;3.15;;;;;;;;;;4995268;28;20045;-60
2021/09/28 11:52:34;;;;;;;3.72;2.80;;;;;;;;;;4996963;28;20022;-60
2021/09/28 11:54:59;;;;;;;4.93;2.90;;;;;;;;;;4999410;28;20137;-61
2021/09/28 11:57:25;;;;;;;4.82;2.50;;;;;;;;;;5000858;28;20273;-60
2021/09/28 11:59:51;;;;;;;3.00;2.40;;;;;;;;;;4996406;28;20136;-59
2021/09/28 12:02:17;;;;;;;3.70;2.58;;;;;;;;;;4999803;28;20047;-59
2021/09/28 12:10:11;;;;;;;4.30;2.25;;;;;;;;;;5001181;28;20080;-60
2021/09/28 12:12:38;;;;;;;3.85;2.78;;;;;;;;;;5002735;28;20097;-59
2021/09/28 12:15:07;;;;;;;3.40;2.42;;;;;;;;;;5001296;28;20026;-60
2021/09/28 12:17:32;;;;;;;5.60;2.67;;;;;;;;;;5000734;28;20032;-61
2021/09/28 12:20:11;;;;;;;4.95;2.65;;;;;;;;;;4999437;28;20120;-60
2021/09/28 12:22:42;;;;;;;2.88;2.30;;;;;;;;;;4991568;28;20139;-60
2021/09/28 12:25:13;;;;;;;3.22;2.60;;;;;;;;;;5001454;28;20386;-61
2021/09/28 12:27:50;;;;;;;3.78;2.75;;;;;;;;;;4991739;28;20038;-60
2021/09/28 12:30:16;;;;;;;5.05;3.10;;;;;;;;;;5005710;28;20065;-60
2021/09/28 12:32:47;;;;;;;4.32;2.78;;;;;;;;;;4996506;28;20124;-60
2021/09/28 12:35:12;;;;;;;3.42;2.75;;;;;;;;;;5006312;28;20014;-60
2021/09/28 12:37:45;;;;;;;3.92;2.70;;;;;;;;;;4997839;28;20489;-59
2021/09/28 12:40:12;;;;;;;3.67;2.25;;;;;;;;;;4994155;28;20083;-60
2021/09/28 12:42:38;;;;;;;2.60;1.92;;;;;;;;;;4989549;28;20035;-61
2021/09/28 12:45:05;;;;;;;4.40;2.10;;;;;;;;;;4994951;28;20022;-59
2021/09/28 12:47:33;;;;;;;3.83;3.05;;;;;;;;;;4989579;28;20029;-58
2021/09/28 12:49:58;;;;;;;5.07;3.22;;;;;;;;;;4998176;28;20040;-60
2021/09/28 12:52:23;;;;;;;5.88;3.90;;;;;;;;;;4999251;28;20389;-58
2021/09/28 12:54:49;;;;;;;5.00;3.20;;;;;;;;;;4997856;28;20462;-59
2021/09/28 12:57:14;;;;;;;6.45;3.60;;;;;;;;;;4990545;28;20026;-59
2021/09/28 12:59:40;;;;;;;6.93;3.15;;;;;;;;;;4996520;28;20073;-59
2021/09/28 13:02:05;;;;;;;5.03;3.30;;;;;;;;;;4997157;28;20021;-57
2021/09/28 13:04:32;;;;;;;4.97;3.27;;;;;;;;;;4997611;28;20117;-57
2021/09/28 13:06:59;;;;;;;5.38;2.90;;;;;;;;;;5005997;28;20256;-58
2021/09/28 13:09:24;;;;;;;4.45;2.92;;;;;;;;;;4994478;28;20032;-59
2021/09/28 13:11:49;;;;;;;5.70;3.70;;;;;;;;;;5003148;28;20026;-59
2021/09/28 13:14:14;;;;;;;7.73;4.33;;;;;;;;;;5007649;28;20049;-59
2021/09/28 13:16:40;;;;;;;5.57;3.35;;;;;;;;;;5004973;28;20764;-57
2021/09/28 13:19:05;;;;;;;5.00;3.58;;;;;;;;;;4997914;28;20571;-56
2021/09/28 13:21:30;;;;;;;5.30;3.60;;;;;;;;;;4998710;28;20101;-57
2021/09/28 13:23:55;;;;;;;6.10;3.90;;;;;;;;;;4998062;28;20025;-57
2021/09/28 13:26:21;;;;;;;8.55;4.47;;;;;;;;;;5000434;28;20040;-58
2021/09/28 13:28:46;;;;;;;10.30;4.32;;;;;;;;;;5003117;28;20013;-59
2021/09/28 13:31:11;;;;;;;7.40;4.68;;;;;;;;;;5003491;28;20041;-56
2021/09/28 13:33:36;;;;;;;7.30;4.47;;;;;;;;;;5011497;28;20129;-57
2021/09/28 13:36:02;;;;;;;9.13;4.78;;;;;;;;;;5007627;28;20099;-59
2021/09/28 13:38:27;;;;;;;6.97;4.00;;;;;;;;;;5003866;28;20029;-59
2021/09/28 13:40:52;;;;;;;6.32;4.10;;;;;;;;;;5006505;28;20030;-58
2021/09/28 13:43:17;;;;;;;6.30;4.55;;;;;;;;;;4994098;28;20026;-59
2021/09/28 13:45:43;;;;;;;6.78;5.00;;;;;;;;;;4997545;28;20407;-58
2021/09/28 13:48:12;;;;;;;6.32;4.05;;;;;;;;;;5000262;28;20477;-59
2021/09/28 13:50:38;;;;;;;7.40;5.22;;;;;;;;;;4991319;28;20073;-58
2021/09/28 13:53:03;;;;;;;6.65;4.20;;;;;;;;;;5003783;28;20112;-59
2021/09/28 13:55:29;;;;;;;6.80;4.55;;;;;;;;;;4996174;28;20310;-58
2021/09/28 13:57:54;;;;;;;6.43;4.00;;;;;;;;;;4999265;28;20801;-58
2021/09/28 14:00:19;;;;;;;5.47;3.83;;;;;;;;;;5009522;28;20034;-59
2021/09/28 14:02:45;;;;;;;6.30;4.00;;;;;;;;;;4997667;28;20114;-58
2021/09/28 14:05:10;;;;;;;8.75;4.78;;;;;;;;;;5010053;28;20052;-57
2021/09/28 14:07:35;;;;;;;8.77;4.70;;;;;;;;;;4997590;28;20034;-60
2021/09/28 14:10:01;;;;;;;10.57;4.60;;;;;;;;;;5008363;28;20477;-58
2021/09/28 14:12:26;;;;;;;6.75;3.55;;;;;;;;;;4993374;28;20084;-59
2021/09/28 14:14:51;;;;;;;7.53;4.47;;;;;;;;;;4999512;28;20063;-59
2021/09/28 14:17:16;;;;;;;7.70;4.50;;;;;;;;;;4994774;28;20852;-57
2021/09/28 14:19:42;;;;;;;7.43;4.53;;;;;;;;;;4993774;28;20277;-57
2021/09/28 14:22:07;;;;;;;8.98;5.00;;;;;;;;;;4999303;28;20326;-59
2021/09/28 14:24:32;;;;;;;7.35;4.90;;;;;;;;;;4999124;28;20474;-58
2021/09/28 14:26:57;;;;;;;6.97;4.78;;;;;;;;;;5003029;28;20509;-60
2021/09/28 14:29:22;;;;;;;9.77;4.78;;;;;;;;;;4995992;28;20034;-60
2021/09/28 14:31:48;;;;;;;8.67;5.23;;;;;;;;;;5002244;28;20097;-59
2021/09/28 14:34:13;;;;;;;6.27;4.20;;;;;;;;;;5001849;28;20283;-59
2021/09/28 14:36:39;;;;;;;7.55;5.18;;;;;;;;;;4992701;28;20664;-60